Time;durP1;ratioP1;P1;durP2;ratioP2;P2;SDS_P1;SDS_P2;PMS_P1;PMS_P2;Temp;Humidity;BMP_temperature;BMP_pressure;BME280_temperature;BME280_humidity;BME280_pressure;Samples;Min_cycle;Max_cycle;Signal;HPM_P1;HPM_P2
2022/03/22 00:00:59;;;;;;;38.22;19.13;;;5.70;97.10;;;;;;6217916;23;20014;-93
2022/03/22 00:03:25;;;;;;;35.75;17.67;;;5.70;97.10;;;;;;6191748;23;20016;-93
2022/03/22 00:05:56;;;;;;;37.45;17.98;;;5.60;97.10;;;;;;6191288;23;20017;-92
2022/03/22 00:08:23;;;;;;;41.60;18.75;;;5.50;97.30;;;;;;6191592;23;20057;-90
2022/03/22 00:10:48;;;;;;;34.03;15.75;;;5.50;97.60;;;;;;6218418;23;20001;-92
2022/03/22 00:13:16;;;;;;;37.03;18.75;;;5.50;97.80;;;;;;6219214;23;19997;-91
2022/03/22 00:15:42;;;;;;;39.40;19.75;;;5.50;98.10;;;;;;6197400;23;20008;-92
2022/03/22 00:18:08;;;;;;;33.63;16.60;;;5.50;98.20;;;;;;6193025;23;19997;-92
2022/03/22 00:20:34;;;;;;;35.35;18.23;;;5.50;98.20;;;;;;6232286;23;20052;-90
2022/03/22 00:23:00;;;;;;;33.47;15.98;;;5.50;98.40;;;;;;6210201;23;20039;-91
2022/03/22 00:25:26;;;;;;;38.33;18.77;;;5.40;98.50;;;;;;6197951;23;20008;-92
2022/03/22 00:27:52;;;;;;;40.70;19.20;;;5.40;98.70;;;;;;6220004;23;20786;-92
2022/03/22 00:30:22;;;;;;;38.22;18.33;;;5.40;98.80;;;;;;6193659;23;20039;-92
2022/03/22 00:32:54;;;;;;;37.38;18.65;;;5.40;98.80;;;;;;6193239;23;20005;-91
2022/03/22 00:35:26;;;;;;;37.72;18.55;;;5.30;98.90;;;;;;6219544;23;20054;-91
2022/03/22 00:37:53;;;;;;;40.47;19.42;;;5.30;99.10;;;;;;6192580;23;20058;-93
2022/03/22 00:40:19;;;;;;;39.60;19.25;;;5.20;99.10;;;;;;6192845;23;20143;-93
2022/03/22 00:42:46;;;;;;;44.60;20.13;;;5.10;99.10;;;;;;6192272;23;20112;-93
2022/03/22 00:45:16;;;;;;;43.20;19.85;;;5.00;99.30;;;;;;6191764;23;20040;-91
2022/03/22 00:47:44;;;;;;;41.58;20.73;;;4.90;99.60;;;;;;6191992;23;20008;-90
2022/03/22 00:50:11;;;;;;;37.70;19.52;;;4.90;99.90;;;;;;6195147;23;20001;-89
2022/03/22 00:52:37;;;;;;;40.08;19.52;;;4.80;99.90;;;;;;6196658;23;20159;-90
2022/03/22 00:55:06;;;;;;;43.33;20.38;;;4.80;99.90;;;;;;6192592;23;20009;-91
2022/03/22 00:57:36;;;;;;;38.58;20.48;;;4.70;99.90;;;;;;6192251;23;20007;-91
2022/03/22 01:00:05;;;;;;;44.58;20.17;;;4.70;99.90;;;;;;6192182;23;20004;-89
2022/03/22 01:02:36;;;;;;;40.30;19.75;;;4.60;99.90;;;;;;6192392;23;20013;-91
2022/03/22 01:05:07;;;;;;;43.30;19.05;;;4.60;99.90;;;;;;6191867;23;20005;-91
2022/03/22 01:07:35;;;;;;;;;;;4.50;99.90;;;;;;6192757;23;20001;-91
2022/03/22 01:10:05;;;;;;;33.22;16.33;;;4.50;99.90;;;;;;6192674;23;19906;-93
2022/03/22 01:12:32;;;;;;;43.53;20.13;;;4.50;99.90;;;;;;6191719;23;20009;-93
2022/03/22 01:14:57;;;;;;;46.50;19.77;;;4.50;99.90;;;;;;6191253;23;20008;-93
2022/03/22 01:17:23;;;;;;;45.28;20.98;;;4.40;99.90;;;;;;6218241;23;20051;-90
2022/03/22 01:19:49;;;;;;;45.47;20.38;;;4.30;99.90;;;;;;6191757;23;20093;-93
2022/03/22 01:22:16;;;;;;;41.40;19.40;;;4.30;99.90;;;;;;6218241;23;20088;-93
2022/03/22 01:24:43;;;;;;;43.42;19.80;;;4.30;99.90;;;;;;6191664;23;20008;-91
2022/03/22 01:27:10;;;;;;;37.72;19.50;;;4.20;99.90;;;;;;6191356;23;20491;-90
2022/03/22 01:29:37;;;;;;;46.65;21.75;;;4.20;99.90;;;;;;6194388;23;20032;-91
2022/03/22 01:32:04;;;;;;;42.63;20.75;;;4.20;99.90;;;;;;6194981;23;20008;-92
2022/03/22 01:34:30;;;;;;;49.22;22.33;;;4.20;99.90;;;;;;6192325;23;20024;-91
2022/03/22 01:36:56;;;;;;;44.63;21.10;;;4.20;99.90;;;;;;6203015;23;20001;-90
2022/03/22 01:39:22;;;;;;;40.33;20.65;;;4.20;99.90;;;;;;6200603;23;20009;-91
2022/03/22 01:41:47;;;;;;;46.30;20.52;;;4.10;99.90;;;;;;6194250;23;20027;-91
2022/03/22 01:44:13;;;;;;;47.78;21.35;;;4.10;99.90;;;;;;6192646;23;20063;-91
2022/03/22 01:46:39;;;;;;;45.63;20.98;;;4.20;99.90;;;;;;6220146;23;20090;-91
2022/03/22 01:49:05;;;;;;;41.78;19.63;;;4.20;99.90;;;;;;6195191;23;20004;-90
2022/03/22 01:51:32;;;;;;;46.40;21.08;;;4.20;99.90;;;;;;6201471;23;20004;-93
2022/03/22 01:53:59;;;;;;;46.83;21.05;;;4.20;99.90;;;;;;6233270;23;20080;-91
2022/03/22 01:56:25;;;;;;;44.45;20.17;;;4.20;99.90;;;;;;6192760;23;20005;-91
2022/03/22 01:58:51;;;;;;;46.70;20.55;;;4.20;99.90;;;;;;6194938;23;20475;-89
2022/03/22 02:06:53;;;;;;;45.97;20.98;;;4.20;99.90;;;;;;6236248;23;20022;-91
2022/03/22 02:09:19;;;;;;;49.35;20.58;;;4.20;99.90;;;;;;6205469;23;20005;-92
2022/03/22 02:11:45;;;;;;;43.20;19.98;;;4.20;99.90;;;;;;6202078;23;20451;-92
2022/03/22 02:14:10;;;;;;;50.58;22.90;;;4.20;99.90;;;;;;6198860;23;20004;-92
2022/03/22 02:16:36;;;;;;;43.38;20.30;;;4.20;99.90;;;;;;6223950;23;19993;-92
2022/03/22 02:19:04;;;;;;;51.22;22.00;;;4.20;99.90;;;;;;6199694;23;20005;-92
2022/03/22 02:21:35;;;;;;;38.45;19.25;;;4.20;99.90;;;;;;6198096;23;20015;-92
2022/03/22 02:24:01;;;;;;;47.58;23.02;;;4.20;99.90;;;;;;6195445;23;20012;-94
2022/03/22 02:26:27;;;;;;;48.45;22.83;;;4.20;99.90;;;;;;6221389;23;20013;-94
2022/03/22 02:28:54;;;;;;;50.72;23.45;;;4.20;99.90;;;;;;6221772;23;20024;-92
2022/03/22 02:31:21;;;;;;;49.03;21.90;;;4.20;99.90;;;;;;6194937;23;19997;-90
2022/03/22 02:33:48;;;;;;;59.80;24.40;;;4.10;99.90;;;;;;6193853;23;20099;-91
2022/03/22 02:36:14;;;;;;;56.78;24.45;;;4.10;99.90;;;;;;6193302;23;20027;-91
2022/03/22 02:38:40;;;;;;;51.78;23.58;;;4.10;99.90;;;;;;6192683;23;20363;-91
2022/03/22 02:41:06;;;;;;;52.78;24.30;;;4.10;99.90;;;;;;6220013;23;20001;-91
2022/03/22 02:43:33;;;;;;;58.08;26.48;;;4.00;99.90;;;;;;6193246;23;20015;-93
2022/03/22 02:45:58;;;;;;;61.50;25.60;;;4.00;99.90;;;;;;6193138;23;20063;-90
2022/03/22 02:48:24;;;;;;;52.78;24.42;;;4.10;99.90;;;;;;6193769;23;20011;-92
2022/03/22 02:50:51;;;;;;;46.20;21.17;;;4.10;99.90;;;;;;6198235;23;20049;-91
2022/03/22 02:53:17;;;;;;;51.70;24.33;;;4.10;99.90;;;;;;6230463;23;20056;-90
2022/03/22 02:55:43;;;;;;;50.65;23.85;;;4.10;99.90;;;;;;6194695;23;20005;-90
2022/03/22 02:58:08;;;;;;;49.10;23.15;;;4.10;99.90;;;;;;6221097;23;20004;-90
2022/03/22 03:00:35;;;;;;;57.15;26.23;;;4.10;99.90;;;;;;6194336;23;20000;-90
2022/03/22 03:03:00;;;;;;;46.38;23.88;;;4.10;99.90;;;;;;6193925;23;20443;-91
2022/03/22 03:05:27;;;;;;;51.15;22.63;;;4.10;99.90;;;;;;6193277;23;20063;-91
2022/03/22 03:07:53;;;;;;;51.38;24.48;;;4.10;99.90;;;;;;6193129;23;20038;-90
2022/03/22 03:10:19;;;;;;;52.65;22.92;;;4.10;99.90;;;;;;6219254;23;20008;-91
2022/03/22 03:12:45;;;;;;;54.65;22.85;;;4.20;99.90;;;;;;6192774;23;20011;-90
2022/03/22 03:15:12;;;;;;;48.45;23.02;;;4.20;99.90;;;;;;6192373;23;20128;-90
2022/03/22 03:17:38;;;;;;;47.47;22.50;;;4.20;99.90;;;;;;6192677;23;20015;-90
2022/03/22 03:20:06;;;;;;;44.75;21.70;;;4.20;99.90;;;;;;6192583;23;20000;-91
2022/03/22 03:22:32;;;;;;;53.00;23.15;;;4.30;99.90;;;;;;6192513;23;20012;-91
2022/03/22 03:24:58;;;;;;;49.03;22.75;;;4.30;99.90;;;;;;6192619;23;20005;-91
2022/03/22 03:27:24;;;;;;;54.72;24.70;;;4.30;99.90;;;;;;6192814;23;20013;-91
2022/03/22 03:29:50;;;;;;;44.65;21.70;;;4.30;99.90;;;;;;6192232;23;20013;-91
2022/03/22 03:32:16;;;;;;;50.75;23.17;;;4.30;99.90;;;;;;6192672;23;20056;-91
2022/03/22 03:34:42;;;;;;;52.75;23.70;;;4.30;99.90;;;;;;6167977;23;20012;-91
2022/03/22 03:37:08;;;;;;;52.63;24.08;;;4.20;99.90;;;;;;6193382;23;20039;-92
2022/03/22 03:39:34;;;;;;;51.67;23.90;;;4.20;99.90;;;;;;6193694;23;20009;-91
2022/03/22 03:42:01;;;;;;;52.50;22.77;;;4.20;99.90;;;;;;6193534;23;20070;-92
2022/03/22 03:47:18;;;;;;;44.30;22.05;;;4.20;99.90;;;;;;6230847;23;20023;-90
2022/03/22 03:49:46;;;;;;;44.92;22.08;;;4.20;99.90;;;;;;6200840;23;20009;-90
2022/03/22 03:52:15;;;;;;;43.00;20.00;;;4.20;99.90;;;;;;6236256;23;19992;-90
2022/03/22 03:54:41;;;;;;;47.90;21.48;;;4.20;99.90;;;;;;6243289;23;19985;-90
2022/03/22 03:57:07;;;;;;;48.90;21.80;;;4.20;99.90;;;;;;6217264;23;20008;-89
2022/03/22 03:59:34;;;;;;;43.67;21.05;;;4.20;99.90;;;;;;6209102;23;20019;-91
2022/03/22 04:02:02;;;;;;;51.35;22.95;;;4.20;99.90;;;;;;6198807;23;20004;-91
2022/03/22 04:04:27;;;;;;;45.97;21.50;;;4.20;99.90;;;;;;6199314;23;20008;-89
2022/03/22 04:06:53;;;;;;;46.08;21.02;;;4.10;99.90;;;;;;6216749;23;20039;-89
2022/03/22 04:09:20;;;;;;;45.33;21.70;;;4.10;99.90;;;;;;6202206;23;20087;-90
2022/03/22 04:11:46;;;;;;;46.97;22.02;;;4.10;99.90;;;;;;6223804;23;20103;-91
2022/03/22 04:14:12;;;;;;;43.67;20.75;;;4.10;99.90;;;;;;6219861;23;20008;-91
2022/03/22 04:16:39;;;;;;;49.53;23.42;;;4.10;99.90;;;;;;6194996;23;20056;-93
2022/03/22 04:19:07;;;;;;;53.08;21.67;;;4.10;99.90;;;;;;6193822;23;20015;-90
2022/03/22 04:21:34;;;;;;;48.15;22.02;;;4.10;99.90;;;;;;6193938;23;20058;-92
2022/03/22 04:24:19;;;;;;;53.13;23.52;;;4.10;99.90;;;;;;6193841;23;20004;-91
2022/03/22 04:26:46;;;;;;;48.30;22.63;;;4.10;99.90;;;;;;6194920;23;20016;-91
2022/03/22 04:34:44;;;;;;;51.22;23.73;;;4.10;99.90;;;;;;6220310;23;20136;-92
2022/03/22 04:37:12;;;;;;;49.75;22.75;;;4.10;99.90;;;;;;6192912;23;20004;-91
2022/03/22 04:39:40;;;;;;;46.42;21.08;;;4.00;99.90;;;;;;6192561;23;20499;-91
2022/03/22 04:42:06;;;;;;;51.78;22.63;;;4.00;99.90;;;;;;6192817;23;20023;-89
2022/03/22 04:44:32;;;;;;;53.47;24.27;;;4.00;99.90;;;;;;6219321;23;20352;-90
2022/03/22 04:46:58;;;;;;;55.47;23.33;;;4.00;99.90;;;;;;6192698;23;20024;-90
2022/03/22 04:49:25;;;;;;;61.13;25.15;;;4.00;99.90;;;;;;6192316;23;20005;-92
2022/03/22 04:57:20;;;;;;;54.70;24.95;;;4.00;99.90;;;;;;6219427;23;20015;-90
2022/03/22 04:59:47;;;;;;;58.38;25.50;;;4.00;99.90;;;;;;6201305;23;20012;-89
2022/03/22 05:02:13;;;;;;;53.22;23.98;;;4.00;99.90;;;;;;6241783;22;20127;-87
2022/03/22 05:04:39;;;;;;;50.97;22.65;;;4.00;99.90;;;;;;6211111;23;20013;-90
2022/03/22 05:07:05;;;;;;;49.47;22.10;;;4.00;99.90;;;;;;6204534;23;20024;-91
2022/03/22 05:09:31;;;;;;;51.25;23.55;;;4.00;99.90;;;;;;6201403;23;20055;-90
2022/03/22 05:11:57;;;;;;;49.22;22.85;;;4.00;99.90;;;;;;6200118;23;20012;-91
2022/03/22 05:14:23;;;;;;;60.42;25.05;;;4.00;99.90;;;;;;6194977;23;20005;-91
2022/03/22 05:16:49;;;;;;;50.50;22.33;;;4.00;99.90;;;;;;6196188;23;20005;-92
2022/03/22 05:19:15;;;;;;;53.25;24.20;;;4.00;99.90;;;;;;6210279;23;20016;-91
2022/03/22 05:21:41;;;;;;;53.95;24.52;;;4.10;99.90;;;;;;6197648;23;20009;-92
2022/03/22 05:24:08;;;;;;;56.92;22.60;;;4.00;99.90;;;;;;6196808;23;20008;-91
2022/03/22 05:26:34;;;;;;;50.35;24.05;;;4.00;99.90;;;;;;6222310;23;20008;-90
2022/03/22 05:29:02;;;;;;;49.25;23.13;;;4.00;99.90;;;;;;6197631;23;20035;-93
2022/03/22 05:31:27;;;;;;;58.58;25.95;;;4.00;99.90;;;;;;6193352;23;20016;-91
2022/03/22 05:33:53;;;;;;;47.00;23.25;;;4.00;99.90;;;;;;6194435;23;20401;-92
2022/03/22 05:36:19;;;;;;;50.38;22.77;;;4.00;99.90;;;;;;6169606;23;20015;-90
2022/03/22 05:38:45;;;;;;;45.75;22.15;;;4.00;99.90;;;;;;6195208;23;20079;-91
2022/03/22 05:41:10;;;;;;;48.10;23.27;;;3.90;99.90;;;;;;6197024;23;20062;-91
2022/03/22 05:43:37;;;;;;;42.70;19.73;;;3.90;99.90;;;;;;6192238;23;20009;-91
2022/03/22 05:46:05;;;;;;;50.08;21.98;;;4.00;99.90;;;;;;6191884;23;20015;-90
2022/03/22 05:48:31;;;;;;;49.03;22.60;;;4.00;99.90;;;;;;6192401;23;20071;-91
2022/03/22 05:50:57;;;;;;;52.28;21.83;;;3.90;99.90;;;;;;6191168;23;20087;-93
2022/03/22 05:53:23;;;;;;;44.67;21.85;;;4.00;99.90;;;;;;6193209;23;20009;-93
2022/03/22 05:55:49;;;;;;;52.63;22.08;;;4.00;99.90;;;;;;6200779;23;20312;-93
2022/03/22 05:58:15;;;;;;;43.72;20.67;;;3.90;99.90;;;;;;6191429;23;20004;-91
2022/03/22 06:00:41;;;;;;;53.75;21.92;;;4.00;99.90;;;;;;6191621;23;20012;-93
2022/03/22 06:03:08;;;;;;;49.97;21.75;;;4.00;99.90;;;;;;6192512;23;20004;-94
2022/03/22 06:05:34;;;;;;;53.40;24.35;;;3.90;99.90;;;;;;6192536;23;20019;-93
2022/03/22 06:08:00;;;;;;;45.15;20.77;;;3.90;99.90;;;;;;6218453;23;20020;-93
2022/03/22 06:10:27;;;;;;;54.15;23.25;;;3.90;99.90;;;;;;6191969;23;20067;-91
2022/03/22 06:12:57;;;;;;;51.92;22.83;;;3.90;99.90;;;;;;6191951;23;20028;-90
2022/03/22 06:15:28;;;;;;;42.53;20.45;;;3.90;99.90;;;;;;6219403;23;20000;-90
2022/03/22 06:17:58;;;;;;;49.05;22.98;;;3.90;99.90;;;;;;6218900;23;20000;-92
2022/03/22 06:20:32;;;;;;;49.28;21.20;;;3.90;99.90;;;;;;6191619;23;20004;-92
2022/03/22 06:23:00;;;;;;;48.83;22.23;;;3.90;99.90;;;;;;6191525;23;20020;-94
2022/03/22 06:25:26;;;;;;;55.00;22.42;;;3.90;99.90;;;;;;6189930;23;20016;-90
2022/03/22 06:27:54;;;;;;;47.85;21.92;;;3.90;99.90;;;;;;6190538;23;20432;-91
2022/03/22 06:30:20;;;;;;;44.15;19.85;;;3.80;99.90;;;;;;6192140;23;20013;-91
2022/03/22 06:32:51;;;;;;;51.70;22.52;;;3.80;99.90;;;;;;6231133;23;20008;-90
2022/03/22 06:35:22;;;;;;;46.72;22.55;;;3.80;99.90;;;;;;6227393;23;20323;-90
2022/03/22 06:37:49;;;;;;;55.28;24.58;;;3.80;99.90;;;;;;6192912;23;20241;-90
2022/03/22 06:40:16;;;;;;;51.35;23.27;;;3.80;99.90;;;;;;6191623;23;20004;-91
2022/03/22 06:42:43;;;;;;;55.53;22.25;;;3.80;99.90;;;;;;6218697;23;20007;-91
2022/03/22 06:45:10;;;;;;;47.28;22.33;;;3.80;99.90;;;;;;6200822;23;20000;-89
2022/03/22 06:47:37;;;;;;;52.30;22.77;;;3.80;99.90;;;;;;6236012;23;20223;-90
2022/03/22 06:50:03;;;;;;;48.22;21.65;;;3.80;99.90;;;;;;6201211;23;20005;-90
2022/03/22 06:52:29;;;;;;;46.85;22.70;;;3.80;99.90;;;;;;6192733;23;20011;-91
2022/03/22 06:54:55;;;;;;;42.00;19.98;;;3.80;99.90;;;;;;6192935;23;20004;-91
2022/03/22 06:57:21;;;;;;;50.22;23.40;;;3.80;99.90;;;;;;6192115;23;20022;-91
2022/03/22 06:59:46;;;;;;;51.53;23.02;;;3.80;99.90;;;;;;6192674;23;20020;-90
2022/03/22 07:02:12;;;;;;;50.55;22.23;;;3.80;99.90;;;;;;6192925;23;20005;-88
2022/03/22 07:04:38;;;;;;;52.13;21.67;;;3.80;99.90;;;;;;6193931;23;20498;-91
2022/03/22 07:07:04;;;;;;;62.33;25.98;;;3.80;99.90;;;;;;6197961;23;20036;-89
2022/03/22 07:09:30;;;;;;;54.28;24.50;;;3.80;99.90;;;;;;6236509;23;19993;-91
2022/03/22 07:11:56;;;;;;;55.22;24.33;;;3.90;99.90;;;;;;6235857;23;20088;-90
2022/03/22 07:14:27;;;;;;;56.35;24.60;;;3.90;99.90;;;;;;6226063;23;20008;-89
2022/03/22 07:16:54;;;;;;;60.92;25.98;;;3.90;99.90;;;;;;6188971;23;20008;-90
2022/03/22 07:19:22;;;;;;;59.35;25.65;;;3.90;99.90;;;;;;6190743;23;20004;-93
2022/03/22 07:21:49;;;;;;;66.68;26.55;;;3.90;99.90;;;;;;6191239;23;20012;-92
2022/03/22 07:24:20;;;;;;;66.57;27.05;;;3.90;99.90;;;;;;6218383;23;20016;-92
2022/03/22 07:26:46;;;;;;;64.15;26.88;;;3.90;99.90;;;;;;6192144;23;20024;-91
2022/03/22 07:29:15;;;;;;;66.00;26.52;;;4.00;99.90;;;;;;6217802;23;20084;-90
2022/03/22 07:31:41;;;;;;;65.50;27.55;;;4.00;99.90;;;;;;6192134;23;20024;-92
2022/03/22 07:34:07;;;;;;;63.55;27.40;;;4.10;99.90;;;;;;6194872;23;20020;-89
2022/03/22 07:36:36;;;;;;;66.28;27.85;;;4.10;99.90;;;;;;6191796;23;20020;-90
2022/03/22 07:39:03;;;;;;;62.33;26.77;;;4.20;99.90;;;;;;6191542;23;20000;-90
2022/03/22 07:41:28;;;;;;;68.85;27.98;;;4.20;99.90;;;;;;6217642;23;20004;-90
2022/03/22 07:43:54;;;;;;;66.57;27.75;;;4.20;99.90;;;;;;6191447;23;20329;-90
2022/03/22 07:46:23;;;;;;;63.35;30.17;;;4.30;99.90;;;;;;6196439;23;20072;-88
2022/03/22 07:48:50;;;;;;;61.45;27.55;;;4.30;99.90;;;;;;6194568;23;20096;-89
2022/03/22 07:54:00;;;;;;;65.35;27.98;;;4.50;99.90;;;;;;6222967;23;20289;-91
2022/03/22 07:56:27;;;;;;;66.53;28.02;;;4.60;99.90;;;;;;6193954;23;20001;-88
2022/03/22 07:58:53;;;;;;;65.47;28.25;;;4.70;99.90;;;;;;6201406;23;20061;-89
2022/03/22 08:01:18;;;;;;;70.57;29.48;;;4.70;99.90;;;;;;6204317;23;20030;-91
2022/03/22 08:03:44;;;;;;;58.10;25.92;;;4.80;99.90;;;;;;6199867;23;20091;-91
2022/03/22 08:06:10;;;;;;;60.35;26.10;;;5.00;99.90;;;;;;6227316;23;20069;-90
2022/03/22 08:08:43;;;;;;;65.07;26.63;;;5.10;99.90;;;;;;6197126;23;20012;-90
2022/03/22 08:11:09;;;;;;;61.83;28.13;;;5.20;99.90;;;;;;6192844;23;20087;-90
2022/03/22 08:13:37;;;;;;;64.25;26.98;;;5.40;99.90;;;;;;6192258;23;20000;-90
2022/03/22 08:16:04;;;;;;;60.35;26.60;;;5.60;99.90;;;;;;6192478;23;20014;-90
2022/03/22 08:18:30;;;;;;;58.15;27.10;;;5.70;99.90;;;;;;6191267;23;20025;-90
2022/03/22 08:20:56;;;;;;;67.13;26.80;;;5.90;99.90;;;;;;6193721;23;20063;-91
2022/03/22 08:23:22;;;;;;;50.00;24.50;;;6.10;99.90;;;;;;6195419;23;20001;-91
2022/03/22 08:25:49;;;;;;;61.17;26.13;;;6.20;99.90;;;;;;6196283;23;20103;-92
2022/03/22 08:28:15;;;;;;;54.15;25.08;;;6.30;99.90;;;;;;6193280;23;20095;-91
2022/03/22 08:30:42;;;;;;;55.10;25.65;;;6.40;99.90;;;;;;6191322;23;20012;-93
2022/03/22 08:33:09;;;;;;;56.55;26.05;;;6.50;99.90;;;;;;6192072;23;20016;-90
2022/03/22 08:35:47;;;;;;;58.42;24.92;;;6.60;99.90;;;;;;6191969;23;20009;-93
2022/03/22 08:38:19;;;;;;;61.83;27.67;;;6.70;99.90;;;;;;6218568;23;20031;-90
2022/03/22 08:40:44;;;;;;;57.33;26.73;;;6.80;99.90;;;;;;6191891;23;20024;-92
2022/03/22 08:43:11;;;;;;;59.03;28.25;;;6.90;99.90;;;;;;6191274;23;20058;-91
2022/03/22 08:45:37;;;;;;;57.15;27.13;;;7.00;99.90;;;;;;6192030;23;20016;-93
2022/03/22 08:48:09;;;;;;;54.25;26.58;;;7.00;99.90;;;;;;6214513;23;20008;-94
2022/03/22 08:50:36;;;;;;;57.83;27.00;;;7.10;99.90;;;;;;6196404;23;20347;-93
2022/03/22 08:53:02;;;;;;;67.38;26.58;;;7.20;99.90;;;;;;6195020;23;20009;-93
2022/03/22 08:55:29;;;;;;;57.00;27.17;;;7.30;99.90;;;;;;6224142;23;20013;-93
2022/03/22 08:57:55;;;;;;;55.35;25.95;;;7.40;99.90;;;;;;6193657;23;20021;-92
2022/03/22 09:00:22;;;;;;;62.13;27.25;;;7.50;99.90;;;;;;6197009;23;20008;-94
2022/03/22 09:02:51;;;;;;;58.72;25.98;;;7.60;99.90;;;;;;6196613;23;20008;-92
2022/03/22 09:08:05;;;;;;;60.28;29.00;;;7.80;99.90;;;;;;6220270;23;20067;-94
2022/03/22 09:10:33;;;;;;;56.47;27.07;;;7.90;99.90;;;;;;6192708;23;20446;-94
2022/03/22 09:13:01;;;;;;;59.58;26.10;;;8.00;99.90;;;;;;6194269;23;20726;-94
2022/03/22 09:15:28;;;;;;;57.25;26.48;;;8.10;99.90;;;;;;6223207;23;20015;-91
2022/03/22 09:17:55;;;;;;;63.40;30.38;;;8.20;99.90;;;;;;6206705;23;20060;-92
2022/03/22 09:20:21;;;;;;;56.03;25.98;;;8.40;99.90;;;;;;6209789;23;20008;-93
2022/03/22 09:22:49;;;;;;;71.93;27.30;;;8.50;99.90;;;;;;6212118;23;20020;-89
2022/03/22 09:25:16;;;;;;;67.72;29.75;;;8.60;99.90;;;;;;6241657;23;20000;-88
2022/03/22 09:27:43;;;;;;;52.30;25.50;;;8.80;99.90;;;;;;6242030;23;20043;-89
2022/03/22 09:30:10;;;;;;;63.80;27.80;;;9.00;99.90;;;;;;6241613;23;20004;-87
2022/03/22 09:32:36;;;;;;;60.83;26.67;;;9.10;99.90;;;;;;6234699;23;20669;-91
2022/03/22 09:35:06;;;;;;;61.67;26.92;;;9.30;99.90;;;;;;6226022;23;19997;-92
2022/03/22 09:37:33;;;;;;;67.18;28.92;;;9.50;99.90;;;;;;6199164;23;20092;-92
2022/03/22 09:39:59;;;;;;;64.05;28.75;;;9.70;99.90;;;;;;6207740;23;20001;-84
2022/03/22 09:42:27;;;;;;;67.65;29.90;;;10.00;99.90;;;;;;6217221;23;20044;-90
2022/03/22 09:44:53;;;;;;;62.97;30.50;;;10.20;99.90;;;;;;6216509;23;20028;-93
2022/03/22 09:47:19;;;;;;;70.18;29.80;;;10.50;99.90;;;;;;6216494;23;20024;-90
2022/03/22 09:49:45;;;;;;;64.97;30.60;;;10.80;99.90;;;;;;6205192;23;20012;-91
2022/03/22 09:52:11;;;;;;;70.88;30.83;;;11.10;99.90;;;;;;6211428;23;20003;-91
2022/03/22 09:54:39;;;;;;;63.85;30.30;;;11.40;99.90;;;;;;6216270;23;20004;-91
2022/03/22 09:57:05;;;;;;;72.70;33.25;;;11.70;99.90;;;;;;6216260;23;20024;-89
2022/03/22 09:59:36;;;;;;;68.55;31.15;;;11.90;99.90;;;;;;6241038;23;19993;-91
2022/03/22 10:02:03;;;;;;;74.93;32.25;;;12.20;99.90;;;;;;6214022;23;19992;-92
2022/03/22 10:04:43;;;;;;;71.60;32.50;;;12.40;99.90;;;;;;6207517;23;20005;-94
2022/03/22 10:07:17;;;;;;;66.18;31.65;;;12.70;99.90;;;;;;6194997;23;20444;-92
2022/03/22 10:09:58;;;;;;;66.40;32.17;;;13.00;99.90;;;;;;6195643;23;20001;-96
2022/03/22 10:12:31;;;;;;;67.38;30.75;;;13.20;99.90;;;;;;6201521;23;20008;-92
2022/03/22 10:15:06;;;;;;;72.82;32.85;;;13.40;99.20;;;;;;6198876;23;20059;-90
2022/03/22 10:17:32;;;;;;;65.65;32.38;;;13.70;98.10;;;;;;6210020;23;20008;-91
2022/03/22 10:19:57;;;;;;;61.47;30.58;;;13.90;97.30;;;;;;6204240;23;20022;-93
2022/03/22 10:22:24;;;;;;;71.30;31.42;;;14.10;96.20;;;;;;6193315;23;20015;-94
2022/03/22 10:24:54;;;;;;;69.43;32.75;;;14.30;95.10;;;;;;6192514;23;20028;-92
2022/03/22 10:27:29;;;;;;;68.55;33.25;;;14.40;93.80;;;;;;6224523;23;20009;-92
2022/03/22 10:30:06;;;;;;;64.78;31.65;;;14.60;92.90;;;;;;6194261;23;20023;-92
2022/03/22 10:32:34;;;;;;;59.60;29.67;;;14.80;92.40;;;;;;6195526;23;20497;-92
2022/03/22 10:35:14;;;;;;;65.50;32.80;;;15.00;92.10;;;;;;6193497;23;20023;-93
2022/03/22 10:38:04;;;;;;;63.57;31.57;;;15.30;91.10;;;;;;6194725;23;20460;-92
2022/03/22 10:40:31;;;;;;;72.97;34.05;;;15.40;90.30;;;;;;6194952;23;20088;-91
2022/03/22 10:43:00;;;;;;;72.47;32.67;;;15.60;89.20;;;;;;6194361;23;20044;-90
2022/03/22 10:45:28;;;;;;;67.53;33.75;;;15.70;87.60;;;;;;6194273;23;20455;-92
2022/03/22 10:47:57;;;;;;;65.55;33.78;;;15.80;86.60;;;;;;6193258;23;20467;-92
2022/03/22 10:50:24;;;;;;;69.15;32.88;;;15.90;85.90;;;;;;6193287;23;20005;-91
2022/03/22 10:52:53;;;;;;;63.60;31.55;;;15.90;85.30;;;;;;6193335;23;20360;-91
2022/03/22 10:55:21;;;;;;;65.75;33.67;;;16.10;84.40;;;;;;6192830;23;20051;-92
2022/03/22 10:57:55;;;;;;;77.35;36.17;;;16.20;83.50;;;;;;6192553;23;20009;-90
2022/03/22 11:00:22;;;;;;;66.40;32.38;;;16.20;82.90;;;;;;6192575;23;20285;-90
2022/03/22 11:02:51;;;;;;;73.18;34.53;;;16.40;82.50;;;;;;6192705;23;20454;-93
2022/03/22 11:05:19;;;;;;;62.83;31.73;;;16.50;81.80;;;;;;6192375;23;20095;-94
2022/03/22 11:07:50;;;;;;;71.93;32.95;;;16.60;81.10;;;;;;6219013;23;20001;-93
2022/03/22 11:10:25;;;;;;;68.28;33.20;;;16.80;80.40;;;;;;6191477;23;20031;-92
2022/03/22 11:12:51;;;;;;;64.90;32.72;;;17.00;79.90;;;;;;6191900;23;20454;-92
2022/03/22 11:15:17;;;;;;;61.63;32.08;;;17.20;79.30;;;;;;6191604;23;20077;-91
2022/03/22 11:17:45;;;;;;;74.82;33.83;;;17.30;78.60;;;;;;6192422;23;20428;-92
2022/03/22 11:20:13;;;;;;;66.25;33.03;;;17.40;77.80;;;;;;6218887;23;20057;-90
2022/03/22 11:22:48;;;;;;;61.95;33.58;;;17.60;76.70;;;;;;6191977;23;20420;-92
2022/03/22 11:25:18;;;;;;;66.47;34.05;;;17.70;75.60;;;;;;6192622;23;20645;-92
2022/03/22 11:27:56;;;;;;;61.13;32.60;;;17.80;75.80;;;;;;6192241;23;20043;-89
2022/03/22 11:30:22;;;;;;;67.63;34.38;;;17.90;74.80;;;;;;6192349;23;20120;-88
2022/03/22 11:35:47;;;;;;;63.40;32.30;;;18.10;74.40;;;;;;6221362;23;20015;-91
2022/03/22 11:38:37;;;;;;;64.22;33.80;;;18.30;73.80;;;;;;6215797;23;20004;-90
2022/03/22 11:43:48;;;;;;;61.45;32.03;;;18.60;72.20;;;;;;6219053;23;20015;-92
2022/03/22 11:46:14;;;;;;;58.28;30.23;;;18.60;71.10;;;;;;6192622;23;20442;-89
2022/03/22 11:48:40;;;;;;;57.70;31.08;;;18.70;71.50;;;;;;6218286;23;20071;-89
2022/03/22 11:51:07;;;;;;;58.10;32.05;;;18.80;70.90;;;;;;6191403;23;20058;-90
2022/03/22 11:53:43;;;;;;;60.97;32.33;;;19.00;70.40;;;;;;6219135;23;19997;-90
2022/03/22 11:56:12;;;;;;;64.88;32.67;;;19.00;69.10;;;;;;6191462;23;20012;-91
2022/03/22 11:58:49;;;;;;;62.95;33.00;;;19.20;69.20;;;;;;6192162;23;20535;-91
2022/03/22 12:01:16;;;;;;;61.80;32.78;;;19.20;68.30;;;;;;6191851;23;20028;-93
2022/03/22 12:03:50;;;;;;;59.33;31.55;;;19.30;68.30;;;;;;6219017;23;20001;-93
2022/03/22 12:06:18;;;;;;;59.53;32.70;;;19.30;67.70;;;;;;6192115;23;20016;-91
2022/03/22 12:08:44;;;;;;;59.47;32.30;;;19.40;67.50;;;;;;6218844;23;20008;-92
2022/03/22 12:11:16;;;;;;;55.80;30.85;;;19.40;67.20;;;;;;6217278;23;20016;-91
2022/03/22 12:13:48;;;;;;;59.78;32.60;;;19.50;67.50;;;;;;6193155;23;20019;-91
2022/03/22 12:16:13;;;;;;;66.85;31.27;;;19.60;66.80;;;;;;6196271;23;20005;-91
2022/03/22 12:18:41;;;;;;;57.15;32.72;;;19.70;66.90;;;;;;6196279;23;20007;-92
2022/03/22 12:21:17;;;;;;;66.88;32.55;;;19.90;66.50;;;;;;6221970;23;20011;-91
2022/03/22 12:23:45;;;;;;;60.47;34.40;;;20.20;66.10;;;;;;6197395;23;20000;-90
2022/03/22 12:26:11;;;;;;;60.25;29.70;;;20.30;65.70;;;;;;6197519;23;20017;-90
2022/03/22 12:28:51;;;;;;;58.47;32.58;;;20.30;65.20;;;;;;6222731;23;20156;-90
2022/03/22 12:31:21;;;;;;;60.72;32.17;;;20.40;65.00;;;;;;6217148;23;20005;-90
2022/03/22 12:33:51;;;;;;;55.97;30.67;;;20.40;64.90;;;;;;6190745;23;20001;-90
2022/03/22 12:36:19;;;;;;;59.20;33.03;;;20.30;64.50;;;;;;6190775;23;20005;-90
2022/03/22 12:38:45;;;;;;;57.13;30.30;;;20.10;64.20;;;;;;6191490;23;20067;-91
2022/03/22 12:41:11;;;;;;;54.58;29.55;;;20.00;64.70;;;;;;6193659;23;20032;-91
2022/03/22 12:43:37;;;;;;;60.33;32.30;;;20.20;65.00;;;;;;6191355;23;20001;-92
2022/03/22 12:46:03;;;;;;;56.10;31.77;;;20.40;65.60;;;;;;6191492;23;20440;-92
2022/03/22 12:48:30;;;;;;;60.78;33.22;;;20.60;64.60;;;;;;6190769;23;20014;-91
2022/03/22 12:50:56;;;;;;;71.85;34.90;;;20.80;64.10;;;;;;6191091;23;20001;-91
2022/03/22 12:53:22;;;;;;;63.95;33.33;;;20.90;63.70;;;;;;6190537;23;20091;-91
2022/03/22 12:55:48;;;;;;;66.65;34.38;;;20.90;63.40;;;;;;6190356;23;20009;-92
2022/03/22 12:58:14;;;;;;;61.67;35.08;;;20.90;63.40;;;;;;6196296;23;20021;-91
2022/03/22 13:00:41;;;;;;;59.20;33.08;;;20.90;63.30;;;;;;6191103;23;20017;-92
2022/03/22 13:03:13;;;;;;;59.95;32.80;;;20.60;63.30;;;;;;6216604;23;20011;-91
2022/03/22 13:05:47;;;;;;;62.58;32.72;;;20.40;63.70;;;;;;6190801;23;20500;-93
2022/03/22 13:08:15;;;;;;;66.28;34.80;;;20.10;64.10;;;;;;6216890;23;20019;-91